Seiyu Maru — JD3189 — position and weather

sailwx.info

Track history (hours):
 
Tides and Currents Weather Stations Pressure Air Temp Water Temp Dewpoint Dewpoint Depression Visibility Wind Speed Wind Dir Waves Ship Positions

Seiyu Maru

Last reported at 2014-Sep-22 16:31 UTC. Time now 2014-Sep-23 04:24 UTC.
Position N 35°21' E 139°51'.

Length 75 m; draft 4.5 m.

Type: Cargo ship. MMSI: 431002433.

Date/timePositionNaut miles runAvg speedWind from/ knotsBaromVisibWave heightAir tempDewpointWater temp
2014-Sep-22 16:31N 35°21' E 139°51'0 0.0
2014-Sep-22 15:33N 35°21' E 139°51'0 0.0
2014-Sep-22 14:33N 35°21' E 139°51'0 0.0
2014-Sep-22 13:33N 35°21' E 139°51'0 0.0
2014-Sep-22 12:32N 35°21' E 139°51'0 0.0
2014-Sep-22 11:33N 35°21' E 139°51'0 0.0
2014-Sep-22 10:33N 35°21' E 139°51'0 0.0
2014-Sep-22 09:33N 35°21' E 139°51'0 0.0
2014-Sep-22 08:32N 35°21' E 139°51'0 0.1
2014-Sep-22 07:33N 35°21' E 139°51'0 0.0
2014-Sep-22 06:33N 35°21' E 139°51'3 2.8
2014-Sep-22 05:33N 35°24' E 139°50'5 5.1
2014-Sep-22 04:32N 35°29' E 139°49'0 0.1
2014-Sep-22 03:30N 35°29' E 139°49'0 0.0
2014-Sep-22 02:33N 35°29' E 139°49'5 5.2
2014-Sep-22 01:33N 35°26' E 139°44'5 5.4
2014-Sep-22 00:33N 35°23' E 139°38'0 0.0
2014-Sep-21 23:33N 35°23' E 139°38'1 0.9
2014-Sep-21 22:33N 35°24' E 139°39'1 0.0
2014-Sep-20 23:16N 35°23' E 139°40'0 0.0
2014-Sep-20 22:28N 35°23' E 139°40'0 0.0
2014-Sep-20 21:31N 35°23' E 139°40'0 0.0
2014-Sep-20 20:31N 35°23' E 139°40'0 0.0
2014-Sep-20 19:31N 35°23' E 139°40'0 0.0
2014-Sep-20 18:31N 35°23' E 139°40'0 0.0
2014-Sep-20 17:31N 35°23' E 139°40'0 0.0
2014-Sep-20 16:31N 35°23' E 139°40'0 0.1
2014-Sep-20 15:33N 35°23' E 139°40'1110.5
2014-Sep-20 14:33N 35°29' E 139°51'4 0.4
2014-Sep-20 06:08N 35°31' E 139°54'611.0
2014-Sep-20 05:33N 35°27' E 139°49'1010.1
2014-Sep-20 04:33N 35°17' E 139°46'247 9.1
2014-Sep-19 01:32N 34°03' E 134°60'1212.2
2014-Sep-19 00:34N 34°15' E 134°59'1211.6
2014-Sep-18 23:31N 34°26' E 135°05'1111.5
2014-Sep-18 22:33N 34°32' E 135°16'9 9.2
2014-Sep-18 21:33N 34°35' E 135°27'1 0.0
2014-Sep-17 04:29N 34°35' E 135°27'0 0.0
2014-Sep-16 22:32N 34°35' E 135°28'0 0.1
2014-Sep-16 21:20N 34°35' E 135°28'0 0.0
2014-Sep-15 20:17N 34°35' E 135°28'0 0.0
2014-Sep-15 19:17N 34°35' E 135°28'0 0.0
2014-Sep-15 18:29N 34°35' E 135°28'0 0.0
2014-Sep-15 17:29N 34°35' E 135°28'0 0.0
2014-Sep-15 15:24N 34°35' E 135°28'3 4.0
2014-Sep-15 14:33N 34°36' E 135°24'1111.4
2014-Sep-15 13:33N 34°35' E 135°10'1111.2
2014-Sep-15 12:33N 34°36' E 134°56'  
2014-Sep-13 01:33N 34°35' E 135°15'  
Track history (hours):
 
Tides and Currents Weather Stations Pressure Air Temp Water Temp Dewpoint Dewpoint Depression Visibility Wind Speed Wind Dir Waves Ship Positions

Seiyu Maru

Last reported at 2014-Sep-22 16:31 UTC. Time now 2014-Sep-23 04:24 UTC.
Position N 35°21' E 139°51'.

Length 75 m; draft 4.5 m.

Type: Cargo ship. MMSI: 431002433.

Date/timePositionNaut miles runAvg speedWind from/ knotsBaromVisibWave heightAir tempDewpointWater temp
2014-Sep-22 16:31N 35°21' E 139°51'0 0.0
2014-Sep-22 15:33N 35°21' E 139°51'0 0.0
2014-Sep-22 14:33N 35°21' E 139°51'0 0.0
2014-Sep-22 13:33N 35°21' E 139°51'0 0.0
2014-Sep-22 12:32N 35°21' E 139°51'0 0.0
2014-Sep-22 11:33N 35°21' E 139°51'0 0.0
2014-Sep-22 10:33N 35°21' E 139°51'0 0.0
2014-Sep-22 09:33N 35°21' E 139°51'0 0.0
2014-Sep-22 08:32N 35°21' E 139°51'0 0.1
2014-Sep-22 07:33N 35°21' E 139°51'0 0.0
2014-Sep-22 06:33N 35°21' E 139°51'3 2.8
2014-Sep-22 05:33N 35°24' E 139°50'5 5.1
2014-Sep-22 04:32N 35°29' E 139°49'0 0.1
2014-Sep-22 03:30N 35°29' E 139°49'0 0.0
2014-Sep-22 02:33N 35°29' E 139°49'5 5.2
2014-Sep-22 01:33N 35°26' E 139°44'5 5.4
2014-Sep-22 00:33N 35°23' E 139°38'0 0.0
2014-Sep-21 23:33N 35°23' E 139°38'1 0.9
2014-Sep-21 22:33N 35°24' E 139°39'1 0.0
2014-Sep-20 23:16N 35°23' E 139°40'0 0.0
2014-Sep-20 22:28N 35°23' E 139°40'0 0.0
2014-Sep-20 21:31N 35°23' E 139°40'0 0.0
2014-Sep-20 20:31N 35°23' E 139°40'0 0.0
2014-Sep-20 19:31N 35°23' E 139°40'0 0.0
2014-Sep-20 18:31N 35°23' E 139°40'0 0.0
2014-Sep-20 17:31N 35°23' E 139°40'0 0.0
2014-Sep-20 16:31N 35°23' E 139°40'0 0.1
2014-Sep-20 15:33N 35°23' E 139°40'1110.5
2014-Sep-20 14:33N 35°29' E 139°51'4 0.4
2014-Sep-20 06:08N 35°31' E 139°54'611.0
2014-Sep-20 05:33N 35°27' E 139°49'1010.1
2014-Sep-20 04:33N 35°17' E 139°46'247 9.1
2014-Sep-19 01:32N 34°03' E 134°60'1212.2
2014-Sep-19 00:34N 34°15' E 134°59'1211.6
2014-Sep-18 23:31N 34°26' E 135°05'1111.5
2014-Sep-18 22:33N 34°32' E 135°16'9 9.2
2014-Sep-18 21:33N 34°35' E 135°27'1 0.0
2014-Sep-17 04:29N 34°35' E 135°27'0 0.0
2014-Sep-16 22:32N 34°35' E 135°28'0 0.1
2014-Sep-16 21:20N 34°35' E 135°28'0 0.0
2014-Sep-15 20:17N 34°35' E 135°28'0 0.0
2014-Sep-15 19:17N 34°35' E 135°28'0 0.0
2014-Sep-15 18:29N 34°35' E 135°28'0 0.0
2014-Sep-15 17:29N 34°35' E 135°28'0 0.0
2014-Sep-15 15:24N 34°35' E 135°28'3 4.0
2014-Sep-15 14:33N 34°36' E 135°24'1111.4
2014-Sep-15 13:33N 34°35' E 135°10'1111.2
2014-Sep-15 12:33N 34°36' E 134°56'  
2014-Sep-13 01:33N 34°35' E 135°15'  

Dump ship's entire track history